createdAt,value
2019-02-20T00:00:33.504Z,88.12
2019-02-20T00:03:41.926Z,87.20
2019-02-20T00:06:49.141Z,87.87
2019-02-20T00:09:57.065Z,88.38
2019-02-20T00:13:03.928Z,87.84
2019-02-20T00:16:10.733Z,87.45
2019-02-20T00:19:20.609Z,87.71
2019-02-20T00:22:27.838Z,88.38
2019-02-20T00:25:34.690Z,87.57
2019-02-20T00:28:43.416Z,88.55
2019-02-20T00:31:50.477Z,87.22
2019-02-20T00:34:57.351Z,86.64
2019-02-20T00:38:04.490Z,87.39
2019-02-20T00:41:11.423Z,87.25
2019-02-20T00:44:27.531Z,87.55
2019-02-20T00:47:52.586Z,86.98
2019-02-20T00:51:11.215Z,88.45
2019-02-20T00:54:19.471Z,88.81
2019-02-20T00:57:26.427Z,88.10
2019-02-20T01:00:33.801Z,87.82
2019-02-20T01:03:40.587Z,87.12
2019-02-20T01:06:47.551Z,86.88
2019-02-20T01:09:54.611Z,86.96
2019-02-20T01:13:01.550Z,87.13
2019-02-20T01:16:08.407Z,87.49
2019-02-20T01:19:18.151Z,87.69
2019-02-20T01:22:26.166Z,88.50
2019-02-20T01:25:33.045Z,88.82
2019-02-20T01:28:39.910Z,90.10
2019-02-20T01:31:46.855Z,88.43
2019-02-20T01:34:53.871Z,87.45
2019-02-20T01:38:00.667Z,87.67
2019-02-20T01:41:07.561Z,87.35
2019-02-20T01:44:14.422Z,89.46
2019-02-20T01:47:21.824Z,91.05
2019-02-20T01:50:28.647Z,89.95
2019-02-20T01:53:35.619Z,89.03
2019-02-20T01:56:42.544Z,89.11
2019-02-20T01:59:50.938Z,87.52
2019-02-20T02:02:58.259Z,87.99
2019-02-20T02:06:05.108Z,87.74
2019-02-20T02:09:12.059Z,91.86
2019-02-20T02:12:19.078Z,89.67
2019-02-20T02:15:26.094Z,90.90
2019-02-20T02:18:33.206Z,89.81
2019-02-20T02:21:40.475Z,88.99
2019-02-20T02:24:47.938Z,89.06
2019-02-20T02:27:54.873Z,91.88
2019-02-20T02:31:01.702Z,90.16
2019-02-20T02:34:08.606Z,90.38
2019-02-20T02:37:15.563Z,90.28
2019-02-20T02:40:22.705Z,91.16
2019-02-20T02:43:29.535Z,91.33
2019-02-20T02:46:36.527Z,90.72
2019-02-20T02:49:43.568Z,91.28
2019-02-20T02:52:50.468Z,90.83
2019-02-20T02:55:57.412Z,90.46
2019-02-20T02:59:04.328Z,89.17
2019-02-20T03:02:11.231Z,89.72
2019-02-20T03:05:18.753Z,90.59
2019-02-20T03:08:25.587Z,90.89
2019-02-20T03:11:32.510Z,90.49
2019-02-20T03:14:39.367Z,89.47
2019-02-20T03:17:46.557Z,89.56
2019-02-20T03:20:53.416Z,90.42
2019-02-20T03:24:00.350Z,90.37
2019-02-20T03:27:07.274Z,90.85
2019-02-20T03:30:14.258Z,91.37
2019-02-20T03:33:21.539Z,90.67
2019-02-20T03:36:28.435Z,90.74
2019-02-20T03:39:35.417Z,89.74
2019-02-20T03:42:42.278Z,89.62
2019-02-20T03:45:49.241Z,90.26
2019-02-20T03:48:56.105Z,90.03
2019-02-20T03:52:03.150Z,90.79
2019-02-20T03:55:10.122Z,90.32
2019-02-20T03:58:17.045Z,93.08
2019-02-20T04:01:23.953Z,92.37
2019-02-20T04:04:30.905Z,90.72
2019-02-20T04:07:38.217Z,90.46
2019-02-20T04:10:45.199Z,91.80
2019-02-20T04:13:52.302Z,90.01
2019-02-20T04:16:59.354Z,91.81
2019-02-20T04:20:07.221Z,90.72
2019-02-20T04:23:14.113Z,91.73
2019-02-20T04:26:21.590Z,92.50
2019-02-20T04:29:28.562Z,90.26
2019-02-20T04:32:35.563Z,91.96
2019-02-20T04:35:42.533Z,90.97
2019-02-20T04:38:49.585Z,91.38
2019-02-20T04:41:56.500Z,89.64
2019-02-20T04:45:03.332Z,91.63
2019-02-20T04:48:11.897Z,91.25
2019-02-20T04:51:19.421Z,91.09
2019-02-20T04:54:26.256Z,90.62
2019-02-20T04:57:33.223Z,89.87
2019-02-20T05:00:40.146Z,90.85
2019-02-20T05:03:47.198Z,89.69
2019-02-20T05:06:54.355Z,89.82
2019-02-20T05:10:01.550Z,89.22
2019-02-20T05:13:08.466Z,89.83
2019-02-20T05:16:15.296Z,89.69
2019-02-20T05:19:22.256Z,89.67
2019-02-20T05:22:29.265Z,89.56
2019-02-20T05:25:40.848Z,89.83
2019-02-20T05:28:47.799Z,89.43
2019-02-20T05:31:56.906Z,88.87
2019-02-20T05:35:03.869Z,88.34
2019-02-20T05:38:10.783Z,88.32
2019-02-20T05:41:19.127Z,88.20
2019-02-20T05:44:26.061Z,87.96
2019-02-20T05:47:32.850Z,87.59
2019-02-20T05:50:40.231Z,87.73
2019-02-20T05:53:47.225Z,87.43
2019-02-20T05:56:54.187Z,86.90
2019-02-20T06:00:01.190Z,87.33
2019-02-20T06:03:09.441Z,88.38
2019-02-20T06:06:18.034Z,87.66
2019-02-20T06:09:24.954Z,87.95
2019-02-20T06:12:33.023Z,87.33
2019-02-20T06:15:39.967Z,87.01
2019-02-20T06:18:47.794Z,87.63
2019-02-20T06:21:54.737Z,87.27
2019-02-20T06:25:01.627Z,87.35
2019-02-20T06:28:08.585Z,86.90
2019-02-20T06:31:15.428Z,86.86
2019-02-20T06:34:23.068Z,86.81
2019-02-20T06:37:29.868Z,86.81
2019-02-20T06:40:36.932Z,86.91
2019-02-20T06:43:44.091Z,87.05
2019-02-20T06:46:52.575Z,87.20
2019-02-20T06:50:01.184Z,86.99
2019-02-20T06:53:08.060Z,86.93
2019-02-20T06:56:14.938Z,86.96
2019-02-20T06:59:22.025Z,86.54
2019-02-20T07:02:31.796Z,86.42
2019-02-20T07:05:42.016Z,86.75
2019-02-20T07:09:39.867Z,86.41
2019-02-20T07:14:00.840Z,86.56
2019-02-20T07:17:54.075Z,86.82
2019-02-20T07:22:01.094Z,86.16
2019-02-20T07:25:38.126Z,86.81
2019-02-20T07:29:35.775Z,86.21
2019-02-20T07:32:42.557Z,86.06
2019-02-20T07:35:49.379Z,85.60
2019-02-20T07:38:56.182Z,85.11
2019-02-20T07:42:03.090Z,85.55
2019-02-20T07:45:13.341Z,85.69
2019-02-20T07:48:22.944Z,85.38
2019-02-20T07:51:29.836Z,85.02
2019-02-20T07:54:36.701Z,85.16
2019-02-20T07:57:43.908Z,85.33
2019-02-20T08:00:50.979Z,85.15
2019-02-20T08:03:57.870Z,84.77
2019-02-20T08:07:04.923Z,84.55
2019-02-20T08:10:46.560Z,84.60
2019-02-20T08:13:53.972Z,83.97
2019-02-20T08:17:00.902Z,83.76
2019-02-20T08:20:08.874Z,83.49
2019-02-20T08:23:15.867Z,83.41
2019-02-20T08:26:22.908Z,83.02
2019-02-20T08:29:30.076Z,82.98
2019-02-20T08:32:37.143Z,82.54
2019-02-20T08:35:44.163Z,82.50
2019-02-20T08:38:51.305Z,82.72
2019-02-20T08:41:59.392Z,82.44
2019-02-20T08:45:06.912Z,82.21
2019-02-20T08:48:14.058Z,81.57
2019-02-20T08:51:21.761Z,82.06
2019-02-20T08:54:28.820Z,81.43
2019-02-20T08:57:36.076Z,81.57
2019-02-20T09:00:43.136Z,80.89
2019-02-20T09:03:50.297Z,80.71
2019-02-20T09:06:57.344Z,80.40
2019-02-20T09:10:04.907Z,80.51
2019-02-20T09:13:11.936Z,80.10
2019-02-20T09:16:22.434Z,79.64
2019-02-20T09:19:29.594Z,79.39
2019-02-20T09:22:36.662Z,78.99
2019-02-20T09:25:43.687Z,79.15
2019-02-20T09:28:50.690Z,79.22
2019-02-20T09:31:57.595Z,79.32
2019-02-20T09:35:05.487Z,79.34
2019-02-20T09:38:12.587Z,78.76
2019-02-20T09:41:19.633Z,78.46
2019-02-20T09:44:26.455Z,77.57
2019-02-20T09:47:33.551Z,77.07
2019-02-20T09:50:40.851Z,77.22
2019-02-20T09:53:47.967Z,77.27
2019-02-20T09:56:54.898Z,76.69
2019-02-20T10:00:01.915Z,76.84
2019-02-20T10:03:10.423Z,75.95
2019-02-20T10:06:17.521Z,75.33
2019-02-20T10:09:24.567Z,75.13
2019-02-20T10:12:31.462Z,74.80
2019-02-20T10:15:38.631Z,74.95
2019-02-20T10:18:46.091Z,73.95
2019-02-20T10:21:56.167Z,74.11
2019-02-20T10:25:05.104Z,73.25
2019-02-20T10:28:12.258Z,71.42
2019-02-20T10:31:19.723Z,70.35
2019-02-20T10:34:26.627Z,70.90
2019-02-20T10:37:33.551Z,71.17
2019-02-20T10:40:40.426Z,70.41
2019-02-20T10:43:47.397Z,69.38
2019-02-20T10:46:54.398Z,69.34
2019-02-20T10:50:01.433Z,70.21
2019-02-20T10:53:08.394Z,70.04
2019-02-20T10:56:15.475Z,69.74
2019-02-20T10:59:22.544Z,70.39
2019-02-20T11:02:30.598Z,69.69
2019-02-20T11:05:38.412Z,69.84
2019-02-20T11:08:45.533Z,68.60
2019-02-20T11:12:12.562Z,69.01
2019-02-20T11:15:19.879Z,69.06
2019-02-20T11:18:27.071Z,69.30
2019-02-20T11:21:34.351Z,70.29
2019-02-20T11:24:41.365Z,69.16
2019-02-20T11:27:48.409Z,69.79
2019-02-20T11:30:56.832Z,69.23
2019-02-20T11:34:04.730Z,69.66
2019-02-20T11:37:11.794Z,68.58
2019-02-20T11:40:19.102Z,68.92
2019-02-20T11:43:26.249Z,68.36
2019-02-20T11:46:33.345Z,69.44
2019-02-20T11:49:40.205Z,69.43
2019-02-20T11:52:47.150Z,69.12
2019-02-20T11:55:54.250Z,69.25
2019-02-20T11:59:01.234Z,68.97
2019-02-20T12:02:08.247Z,67.94
2019-02-20T12:05:15.253Z,67.75
2019-02-20T12:08:23.722Z,67.77
2019-02-20T12:11:30.807Z,66.56
2019-02-20T12:14:37.663Z,67.71
2019-02-20T12:17:44.572Z,66.22
2019-02-20T12:20:51.638Z,64.53
2019-02-20T12:24:00.658Z,64.05
2019-02-20T12:27:07.617Z,62.60
2019-02-20T12:30:14.571Z,63.94
2019-02-20T12:33:21.452Z,64.52
2019-02-20T12:36:29.445Z,64.45
2019-02-20T12:39:37.922Z,65.35
2019-02-20T12:42:46.352Z,65.59
2019-02-20T12:45:53.123Z,65.36
2019-02-20T12:49:00.035Z,65.35
2019-02-20T12:52:06.839Z,65.62
2019-02-20T12:55:13.792Z,63.90
2019-02-20T12:58:20.768Z,63.91
2019-02-20T13:01:27.783Z,64.17
2019-02-20T13:04:34.920Z,64.35
2019-02-20T13:07:41.822Z,64.42
2019-02-20T13:10:48.769Z,63.96
2019-02-20T13:13:55.690Z,64.22
2019-02-20T13:17:02.535Z,63.99
2019-02-20T13:20:09.508Z,64.58
2019-02-20T13:23:20.094Z,65.46
2019-02-20T13:26:26.828Z,65.67
2019-02-20T13:29:33.747Z,67.01
2019-02-20T13:32:40.715Z,67.36
2019-02-20T13:35:47.544Z,67.54
2019-02-20T13:38:54.752Z,66.92
2019-02-20T13:42:01.601Z,66.48
2019-02-20T13:45:08.663Z,65.91
2019-02-20T13:48:15.739Z,66.40
2019-02-20T13:51:22.886Z,66.52
2019-02-20T13:54:30.042Z,65.69
2019-02-20T13:57:36.928Z,67.01
2019-02-20T14:00:44.532Z,66.42
2019-02-20T14:03:53.295Z,67.02
2019-02-20T14:07:00.376Z,66.71
2019-02-20T14:10:10.571Z,66.62
2019-02-20T14:13:18.438Z,66.37
2019-02-20T14:16:25.777Z,65.69
2019-02-20T14:19:34.753Z,65.53
2019-02-20T14:22:41.419Z,66.80
2019-02-20T14:25:48.327Z,66.11
2019-02-20T14:28:55.575Z,67.18
2019-02-20T14:32:02.443Z,67.64
2019-02-20T14:35:09.603Z,68.49
2019-02-20T14:38:17.244Z,68.12
2019-02-20T14:41:24.291Z,67.94
2019-02-20T14:44:31.163Z,68.46
2019-02-20T14:47:38.177Z,68.13
2019-02-20T14:50:45.213Z,68.43
2019-02-20T14:53:54.248Z,68.50
2019-02-20T14:57:01.449Z,68.32
2019-02-20T15:00:10.126Z,68.09
2019-02-20T15:03:17.530Z,67.82
2019-02-20T15:06:24.697Z,68.29
2019-02-20T15:09:31.646Z,67.23
2019-02-20T15:12:38.777Z,67.35
2019-02-20T15:15:47.394Z,67.13
2019-02-20T15:18:54.423Z,67.77
2019-02-20T15:22:01.769Z,67.67
2019-02-20T15:25:09.146Z,66.90
2019-02-20T15:28:17.492Z,68.26
2019-02-20T15:31:33.462Z,68.09
2019-02-20T15:34:34.859Z,67.80
2019-02-20T15:37:42.997Z,68.19
2019-02-20T15:40:49.997Z,67.84
2019-02-20T15:43:57.222Z,68.01
2019-02-20T15:47:04.051Z,67.80
2019-02-20T15:50:12.206Z,68.36
2019-02-20T15:53:21.031Z,68.59
2019-02-20T15:56:28.030Z,69.46
2019-02-20T15:59:34.973Z,69.40
2019-02-20T16:02:42.078Z,69.52
2019-02-20T16:05:49.557Z,69.71
2019-02-20T16:08:56.397Z,69.78
2019-02-20T16:12:03.418Z,69.97
2019-02-20T16:15:10.829Z,70.11
2019-02-20T16:18:19.945Z,70.50
2019-02-20T16:21:27.008Z,70.88
2019-02-20T16:24:33.969Z,71.04
2019-02-20T16:27:46.812Z,70.86
2019-02-20T16:30:49.840Z,71.56
2019-02-20T16:33:56.970Z,70.86
2019-02-20T16:37:03.973Z,71.07
2019-02-20T16:40:12.413Z,71.66
2019-02-20T16:43:20.264Z,71.11
2019-02-20T16:46:28.419Z,71.49
2019-02-20T16:49:35.536Z,72.25
2019-02-20T16:52:42.440Z,71.76
2019-02-20T16:55:49.400Z,72.14
2019-02-20T16:58:56.904Z,72.70
2019-02-20T17:02:03.922Z,72.91
2019-02-20T17:05:14.268Z,72.76
2019-02-20T17:08:23.494Z,73.23
2019-02-20T17:11:30.471Z,72.66
2019-02-20T17:14:37.592Z,72.54
2019-02-20T17:17:44.581Z,72.81
2019-02-20T17:20:51.502Z,73.70
2019-02-20T17:23:58.824Z,73.37
2019-02-20T17:27:06.919Z,73.69
2019-02-20T17:30:14.254Z,73.70
2019-02-20T17:33:21.223Z,73.42
2019-02-20T17:36:29.599Z,73.73
2019-02-20T17:39:36.609Z,74.31
2019-02-20T17:42:43.593Z,74.65
2019-02-20T17:45:51.976Z,73.91
2019-02-20T17:48:59.136Z,73.77
2019-02-20T17:52:06.083Z,73.46
2019-02-20T17:55:13.083Z,73.54
2019-02-20T17:58:20.166Z,74.06
2019-02-20T18:01:27.157Z,74.36
2019-02-20T18:04:35.926Z,74.14
2019-02-20T18:07:49.873Z,75.43
2019-02-20T18:10:51.619Z,76.43
2019-02-20T18:13:58.692Z,75.74
2019-02-20T18:17:05.874Z,76.74
2019-02-20T18:20:12.786Z,77.02
2019-02-20T18:23:22.466Z,76.69
2019-02-20T18:26:29.422Z,76.30
2019-02-20T18:29:36.338Z,77.72
2019-02-20T18:32:43.348Z,77.26
2019-02-20T18:35:50.241Z,77.42
2019-02-20T18:38:57.884Z,77.30
2019-02-20T18:42:04.823Z,76.74
2019-02-20T18:45:13.102Z,76.11
2019-02-20T18:48:20.266Z,78.11
2019-02-20T18:51:28.227Z,78.43
2019-02-20T18:54:35.194Z,77.89
2019-02-20T18:57:42.128Z,78.10
2019-02-20T19:00:49.114Z,77.66
2019-02-20T19:03:56.789Z,77.25
2019-02-20T19:07:22.484Z,77.12
2019-02-20T19:10:35.085Z,77.16
2019-02-20T19:14:19.480Z,77.55
2019-02-20T19:18:47.805Z,77.49
2019-02-20T19:22:55.624Z,79.14
2019-02-20T19:26:37.874Z,79.09
2019-02-20T19:30:29.827Z,80.09
2019-02-20T19:34:40.006Z,80.73
2019-02-20T19:38:33.157Z,81.21
2019-02-20T19:42:19.754Z,81.70
2019-02-20T19:46:23.612Z,82.75
2019-02-20T19:50:41.861Z,83.77
2019-02-20T19:54:42.072Z,81.62
2019-02-20T19:58:38.182Z,81.75
2019-02-20T20:03:00.330Z,81.27
2019-02-20T20:07:12.138Z,80.88
2019-02-20T20:11:07.040Z,82.79
2019-02-20T20:14:57.891Z,81.59
2019-02-20T20:18:30.111Z,81.38
2019-02-20T20:22:49.971Z,81.58
2019-02-20T20:26:56.139Z,81.06
2019-02-20T20:31:21.478Z,82.62
2019-02-20T20:35:18.472Z,83.17
2019-02-20T20:38:46.733Z,83.22
2019-02-20T20:42:58.882Z,83.42
2019-02-20T20:47:04.230Z,82.98
2019-02-20T20:51:21.279Z,83.55
2019-02-20T20:55:31.139Z,82.87
2019-02-20T20:59:17.503Z,83.46
2019-02-20T21:02:58.754Z,82.23
2019-02-20T21:07:11.115Z,81.71
2019-02-20T21:11:29.865Z,83.01
2019-02-20T21:15:12.654Z,83.54
2019-02-20T21:19:40.157Z,84.29
2019-02-20T21:23:19.989Z,84.73
2019-02-20T21:27:25.062Z,84.95
2019-02-20T21:31:34.752Z,84.00
2019-02-20T21:35:16.866Z,84.93
2019-02-20T21:39:44.922Z,84.23
2019-02-20T21:43:41.390Z,84.45
2019-02-20T21:47:37.305Z,84.40
2019-02-20T21:51:59.903Z,85.00
2019-02-20T21:55:40.185Z,84.57
2019-02-20T21:59:45.724Z,87.27
2019-02-20T22:04:14.623Z,84.00
2019-02-20T22:08:10.435Z,84.90
2019-02-20T22:12:20.263Z,84.21
2019-02-20T22:16:20.177Z,83.43
2019-02-20T22:20:42.358Z,84.83
2019-02-20T22:24:13.328Z,84.93
2019-02-20T22:27:53.428Z,84.12
2019-02-20T22:31:27.067Z,83.27
2019-02-20T22:35:13.177Z,84.21
2019-02-20T22:39:23.572Z,84.82
2019-02-20T22:43:21.828Z,85.15
2019-02-20T22:47:03.658Z,84.65
2019-02-20T22:50:53.915Z,84.84
2019-02-20T22:55:02.442Z,84.05
2019-02-20T22:59:18.129Z,86.26
2019-02-20T23:03:22.721Z,85.09
2019-02-20T23:07:03.159Z,85.53
2019-02-20T23:11:13.433Z,86.21
2019-02-20T23:15:00.942Z,86.41
2019-02-20T23:18:09.577Z,87.62
2019-02-20T23:21:19.945Z,86.40
2019-02-20T23:24:26.911Z,86.02
2019-02-20T23:27:33.848Z,86.04
2019-02-20T23:30:40.810Z,87.99
2019-02-20T23:33:47.646Z,88.31
2019-02-20T23:36:55.777Z,89.50
2019-02-20T23:40:04.738Z,89.79
2019-02-20T23:43:11.531Z,87.60
2019-02-20T23:46:18.727Z,86.21
2019-02-20T23:49:25.559Z,87.39
2019-02-20T23:52:32.600Z,86.32
2019-02-20T23:55:39.621Z,86.57
2019-02-20T23:58:46.578Z,86.13
